Terminal Aerodrome Forecast
Issued by NWS

Home | Current Version | Previous Version | Text Only | Print | Product List | Glossary On
Versions: 1 2 3 4 5 6 7 8 9 10 11 12 13 14 15 16 17 18 19 20 21 22 23 24
000
FTUS42 KMFL 280537
TAFOPF
TAF
KOPF 280537Z 2806/2906 24004KT P6SM FEW120 SCT250
      TEMPO 2808/2812 VRB03KT
     FM281400 24005KT P6SM SCT020 SCT250
     FM281800 20006KT P6SM VCTS SCT030CB BKN070 BKN250=

USA.gov is the U.S. government's official web portal to all federal, state and local government web resources and services.